F/V Boree Al — FVN0 — position and weather

sailwx.info

Track history (hours):
 
Tides and Currents Weather Stations Pressure Air Temp Water Temp Dewpoint Dewpoint Depression Visibility Wind Speed Wind Dir Waves Ship Positions

F/V Boree Al

Last reported at 2018-Feb-19 14:53 UTC. Time now 2018-Feb-19 15:27 UTC.
Position N 48°16' W 005°19'.

Length 24 m; draft 4.5 m.

Type: Fishing. MMSI: 227558000.

Date/timePositionNaut miles runAvg speedWind from/ knotsBaromVisibWave heightAir tempDewpointWater temp
2018-Feb-19 14:53N 48°16' W 005°19'2 4.3
2018-Feb-19 14:28N 48°15' W 005°20'2 3.1
2018-Feb-19 13:59N 48°14' W 005°22'1 2.6
2018-Feb-19 13:29N 48°15' W 005°22'2 3.0
2018-Feb-19 12:55N 48°17' W 005°21'2 3.6
2018-Feb-19 12:21N 48°19' W 005°21'17 1.7
2018-Feb-19 02:08N 48°36' W 005°20'2 9.4
2018-Feb-19 01:56N 48°37' W 005°18'5 9.7
2018-Feb-19 01:26N 48°39' W 005°11'  
2018-Feb-16 11:20N 48°36' W 005°20'2 3.9
2018-Feb-16 10:56N 48°37' W 005°18'3 3.7
2018-Feb-16 10:05N 48°40' W 005°16'0 3.4
2018-Feb-16 09:59N 48°40' W 005°16'2 3.4
2018-Feb-16 09:29N 48°40' W 005°19'2 3.5
2018-Feb-16 08:53N 48°42' W 005°16'2 3.9
2018-Feb-16 08:28N 48°42' W 005°14'2 3.5
2018-Feb-16 07:57N 48°43' W 005°12'2 3.2
2018-Feb-16 07:25N 48°44' W 005°09'9 0.4
2018-Feb-15 09:52N 48°39' W 005°20'2 3.7
2018-Feb-15 09:20N 48°40' W 005°18'30 1.6
2018-Feb-14 13:44N 48°10' W 005°19'2 8.3
2018-Feb-14 13:30N 48°10' W 005°16'4 8.4
2018-Feb-14 13:00N 48°11' W 005°10'4 8.3
2018-Feb-14 12:30N 48°13' W 005°04'5 8.7
2018-Feb-14 11:59N 48°14' W 004°58'4 9.1
2018-Feb-14 11:29N 48°16' W 004°52'4 9.4
2018-Feb-14 11:00N 48°17' W 004°45'5 9.4
2018-Feb-14 10:31N 48°18' W 004°38'5 9.1
2018-Feb-14 10:01N 48°21' W 004°33'2 0.3
2018-Feb-14 02:45N 48°22' W 004°30'1 3.2
2018-Feb-14 02:30N 48°21' W 004°31'2 4.0
2018-Feb-14 02:00N 48°21' W 004°33'3 6.3
2018-Feb-14 01:30N 48°20' W 004°38'3 6.1
2018-Feb-14 01:00N 48°19' W 004°42'3 6.1
2018-Feb-14 00:30N 48°17' W 004°46'3 6.1
2018-Feb-14 00:00N 48°17' W 004°51'3 5.2
2018-Feb-13 23:30N 48°16' W 004°55'3 4.9
2018-Feb-13 22:59N 48°16' W 004°58'2 4.8
2018-Feb-13 22:29N 48°17' W 005°02'3 5.6
2018-Feb-13 22:00N 48°18' W 005°06'3 5.7
2018-Feb-13 21:30N 48°19' W 005°09'4 6.2
2018-Feb-13 20:54N 48°21' W 005°14'14 7.2
2018-Feb-13 19:02N 48°35' W 005°16'1 9.7
2018-Feb-13 18:58N 48°35' W 005°15'5 9.7
2018-Feb-13 18:29N 48°38' W 005°10'  
Track history (hours):
 
Tides and Currents Weather Stations Pressure Air Temp Water Temp Dewpoint Dewpoint Depression Visibility Wind Speed Wind Dir Waves Ship Positions

F/V Boree Al

Last reported at 2018-Feb-19 14:53 UTC. Time now 2018-Feb-19 15:27 UTC.
Position N 48°16' W 005°19'.

Length 24 m; draft 4.5 m.

Type: Fishing. MMSI: 227558000.

Date/timePositionNaut miles runAvg speedWind from/ knotsBaromVisibWave heightAir tempDewpointWater temp
2018-Feb-19 14:53N 48°16' W 005°19'2 4.3
2018-Feb-19 14:28N 48°15' W 005°20'2 3.1
2018-Feb-19 13:59N 48°14' W 005°22'1 2.6
2018-Feb-19 13:29N 48°15' W 005°22'2 3.0
2018-Feb-19 12:55N 48°17' W 005°21'2 3.6
2018-Feb-19 12:21N 48°19' W 005°21'17 1.7
2018-Feb-19 02:08N 48°36' W 005°20'2 9.4
2018-Feb-19 01:56N 48°37' W 005°18'5 9.7
2018-Feb-19 01:26N 48°39' W 005°11'  
2018-Feb-16 11:20N 48°36' W 005°20'2 3.9
2018-Feb-16 10:56N 48°37' W 005°18'3 3.7
2018-Feb-16 10:05N 48°40' W 005°16'0 3.4
2018-Feb-16 09:59N 48°40' W 005°16'2 3.4
2018-Feb-16 09:29N 48°40' W 005°19'2 3.5
2018-Feb-16 08:53N 48°42' W 005°16'2 3.9
2018-Feb-16 08:28N 48°42' W 005°14'2 3.5
2018-Feb-16 07:57N 48°43' W 005°12'2 3.2
2018-Feb-16 07:25N 48°44' W 005°09'9 0.4
2018-Feb-15 09:52N 48°39' W 005°20'2 3.7
2018-Feb-15 09:20N 48°40' W 005°18'30 1.6
2018-Feb-14 13:44N 48°10' W 005°19'2 8.3
2018-Feb-14 13:30N 48°10' W 005°16'4 8.4
2018-Feb-14 13:00N 48°11' W 005°10'4 8.3
2018-Feb-14 12:30N 48°13' W 005°04'5 8.7
2018-Feb-14 11:59N 48°14' W 004°58'4 9.1
2018-Feb-14 11:29N 48°16' W 004°52'4 9.4
2018-Feb-14 11:00N 48°17' W 004°45'5 9.4
2018-Feb-14 10:31N 48°18' W 004°38'5 9.1
2018-Feb-14 10:01N 48°21' W 004°33'2 0.3
2018-Feb-14 02:45N 48°22' W 004°30'1 3.2
2018-Feb-14 02:30N 48°21' W 004°31'2 4.0
2018-Feb-14 02:00N 48°21' W 004°33'3 6.3
2018-Feb-14 01:30N 48°20' W 004°38'3 6.1
2018-Feb-14 01:00N 48°19' W 004°42'3 6.1
2018-Feb-14 00:30N 48°17' W 004°46'3 6.1
2018-Feb-14 00:00N 48°17' W 004°51'3 5.2
2018-Feb-13 23:30N 48°16' W 004°55'3 4.9
2018-Feb-13 22:59N 48°16' W 004°58'2 4.8
2018-Feb-13 22:29N 48°17' W 005°02'3 5.6
2018-Feb-13 22:00N 48°18' W 005°06'3 5.7
2018-Feb-13 21:30N 48°19' W 005°09'4 6.2
2018-Feb-13 20:54N 48°21' W 005°14'14 7.2
2018-Feb-13 19:02N 48°35' W 005°16'1 9.7
2018-Feb-13 18:58N 48°35' W 005°15'5 9.7
2018-Feb-13 18:29N 48°38' W 005°10'  

Dump ship's entire track history